createdAt,value
2018-07-21T18:55:08.374Z,30.00
2018-07-21T18:57:37.368Z,30.10
2018-07-21T19:00:06.301Z,30.20
2018-07-21T19:02:35.106Z,30.00
2018-07-21T19:05:04.050Z,30.00
2018-07-21T19:07:34.706Z,30.10
2018-07-21T19:10:04.015Z,30.90
2018-07-21T19:12:37.938Z,30.20
2018-07-21T19:15:07.750Z,31.10
2018-07-21T19:17:36.609Z,30.40
2018-07-21T19:20:11.096Z,30.20
2018-07-21T19:22:39.974Z,30.10
2018-07-21T19:25:14.109Z,29.60
2018-07-21T19:27:42.921Z,30.00
2018-07-21T19:30:11.750Z,29.90
2018-07-21T19:32:46.211Z,29.60
2018-07-21T19:35:15.025Z,29.60
2018-07-21T19:37:47.721Z,29.60
2018-07-21T19:40:18.467Z,29.70
2018-07-21T19:45:46.661Z,29.70
2018-07-21T19:48:15.421Z,29.90
2018-07-21T19:50:45.187Z,30.00
2018-07-21T19:53:14.396Z,30.00
2018-07-21T19:55:43.172Z,30.00
2018-07-21T19:58:11.975Z,30.00
2018-07-21T20:00:41.221Z,30.40
2018-07-21T20:03:10.035Z,30.40
2018-07-21T20:05:38.812Z,30.00
2018-07-21T20:08:10.756Z,30.20
2018-07-21T20:10:39.547Z,30.00
2018-07-21T20:13:08.763Z,31.20
2018-07-21T20:15:37.572Z,31.20
2018-07-21T20:18:06.424Z,30.30
2018-07-21T20:20:35.236Z,30.50
2018-07-21T20:23:04.380Z,30.70
2018-07-21T20:25:33.185Z,30.70
2018-07-21T20:28:02.078Z,31.80
2018-07-21T20:30:30.968Z,31.50
2018-07-21T20:32:59.895Z,31.20
2018-07-21T20:35:28.791Z,31.50
2018-07-21T20:37:57.942Z,31.20
2018-07-21T20:40:26.734Z,31.20
2018-07-21T20:42:55.550Z,31.00
2018-07-21T20:45:24.541Z,31.10
2018-07-21T20:47:53.362Z,31.30
2018-07-21T20:52:50.875Z,31.10
2018-07-21T20:55:19.657Z,31.20
2018-07-21T20:57:48.481Z,31.40
2018-07-21T21:00:17.719Z,31.50
2018-07-21T21:02:46.470Z,31.60
2018-07-21T21:05:15.277Z,31.70
2018-07-21T21:07:44.115Z,31.80
2018-07-21T21:10:12.932Z,31.80
2018-07-21T21:12:41.731Z,31.90
2018-07-21T21:15:11.021Z,32.00
2018-07-21T21:17:39.799Z,32.30
2018-07-21T21:20:08.613Z,32.20
2018-07-21T21:22:37.599Z,32.20
2018-07-21T21:25:06.707Z,32.10
2018-07-21T21:27:35.534Z,32.40
2018-07-21T21:30:04.401Z,32.50
2018-07-21T21:32:33.184Z,32.30
2018-07-21T21:35:01.997Z,32.30
2018-07-21T21:37:30.868Z,32.30
2018-07-21T21:39:59.670Z,32.50
2018-07-21T21:42:28.526Z,33.70
2018-07-21T21:44:57.296Z,33.00
2018-07-21T21:47:26.117Z,32.80
2018-07-21T21:49:55.082Z,32.60
2018-07-21T21:52:23.878Z,32.70
2018-07-21T21:54:52.866Z,32.80
2018-07-21T21:59:50.186Z,34.00
2018-07-21T22:02:19.034Z,33.50
2018-07-21T22:04:47.913Z,33.90
2018-07-21T22:07:16.634Z,34.10
2018-07-21T22:09:45.429Z,34.20
2018-07-21T22:12:14.589Z,34.80
2018-07-21T22:14:43.361Z,35.00
2018-07-21T22:17:12.178Z,34.90
2018-07-21T22:19:41.550Z,34.90
2018-07-21T22:22:10.347Z,34.80
2018-07-21T22:24:39.172Z,34.70
2018-07-21T22:27:08.228Z,34.80
2018-07-21T22:29:37.031Z,35.00
2018-07-21T22:32:05.887Z,34.90
2018-07-21T22:34:34.729Z,35.10
2018-07-21T22:37:03.999Z,34.80
2018-07-21T22:39:32.804Z,35.10
2018-07-21T22:42:01.622Z,35.40
2018-07-21T22:44:30.430Z,36.20
2018-07-21T22:46:59.227Z,37.20
2018-07-21T22:49:28.048Z,36.40
2018-07-21T22:51:56.858Z,36.30
2018-07-21T22:54:25.662Z,37.00
2018-07-21T22:56:54.537Z,37.20
2018-07-21T22:59:23.406Z,36.40
2018-07-21T23:01:52.188Z,35.70
2018-07-21T23:04:21.009Z,36.10
2018-07-21T23:06:49.825Z,36.30
2018-07-21T23:09:18.602Z,36.60
2018-07-21T23:11:47.413Z,37.30
2018-07-21T23:14:16.207Z,37.80
2018-07-21T23:16:45.036Z,38.10
2018-07-21T23:19:14.070Z,37.20
2018-07-21T23:21:42.861Z,37.70
2018-07-21T23:24:11.666Z,37.70
2018-07-21T23:26:40.520Z,37.60
2018-07-21T23:29:09.375Z,37.60
2018-07-21T23:31:38.189Z,37.70
2018-07-21T23:34:07.054Z,37.60
2018-07-21T23:36:35.866Z,37.70
2018-07-21T23:39:07.425Z,37.60
2018-07-21T23:41:36.253Z,38.80
2018-07-21T23:44:05.076Z,39.10
2018-07-21T23:46:33.889Z,39.20
2018-07-21T23:49:02.779Z,39.20
2018-07-21T23:51:31.577Z,38.90
2018-07-21T23:54:00.435Z,39.60
2018-07-21T23:56:29.432Z,39.70
2018-07-21T23:58:58.234Z,39.70
